createdAt,value
2019-04-16T00:00:02.315Z,72.86
2019-04-16T00:01:02.278Z,73.02
2019-04-16T00:02:02.333Z,72.80
2019-04-16T00:03:02.293Z,72.99
2019-04-16T00:04:02.306Z,73.03
2019-04-16T00:05:02.321Z,73.24
2019-04-16T00:06:02.304Z,73.33
2019-04-16T00:07:02.313Z,73.81
2019-04-16T00:08:02.318Z,74.10
2019-04-16T00:09:02.317Z,74.42
2019-04-16T00:10:02.305Z,74.13
2019-04-16T00:11:02.351Z,74.30
2019-04-16T00:12:02.304Z,74.08
2019-04-16T00:13:02.323Z,73.97
2019-04-16T00:14:03.486Z,74.02
2019-04-16T00:15:02.313Z,74.15
2019-04-16T00:16:02.322Z,74.27
2019-04-16T00:17:02.343Z,74.24
2019-04-16T00:18:02.337Z,74.39
2019-04-16T00:19:05.653Z,74.44
2019-04-16T00:20:05.663Z,74.65
2019-04-16T00:21:02.525Z,74.63
2019-04-16T00:22:02.340Z,74.78
2019-04-16T00:23:02.349Z,74.77
2019-04-16T00:24:02.314Z,74.91
2019-04-16T00:25:02.344Z,75.04
2019-04-16T00:26:02.303Z,75.17
2019-04-16T00:27:02.313Z,75.08
2019-04-16T00:28:02.317Z,75.10
2019-04-16T00:29:03.180Z,75.20
2019-04-16T00:30:04.862Z,75.31
2019-04-16T00:31:04.694Z,75.21
2019-04-16T00:32:02.350Z,75.24
2019-04-16T00:33:02.315Z,75.11
2019-04-16T00:34:02.328Z,74.98
2019-04-16T00:35:02.357Z,75.15
2019-04-16T00:36:02.345Z,75.10
2019-04-16T00:37:02.314Z,75.35
2019-04-16T00:38:02.369Z,75.39
2019-04-16T00:39:02.328Z,75.33
2019-04-16T00:40:02.332Z,75.25
2019-04-16T00:41:02.387Z,75.33
2019-04-16T00:42:02.339Z,75.48
2019-04-16T00:43:02.337Z,75.28
2019-04-16T00:44:02.332Z,75.56
2019-04-16T00:45:02.321Z,75.58
2019-04-16T00:46:02.322Z,75.44
2019-04-16T00:47:02.395Z,75.47
2019-04-16T00:48:02.334Z,75.43
2019-04-16T00:49:02.343Z,75.59
2019-04-16T00:50:02.340Z,75.79
2019-04-16T00:51:02.337Z,75.85
2019-04-16T00:52:05.898Z,76.14
2019-04-16T00:53:02.339Z,76.19
2019-04-16T00:54:02.332Z,76.07
2019-04-16T00:55:02.343Z,76.13
2019-04-16T00:56:02.338Z,76.31
2019-04-16T00:57:02.433Z,76.34
2019-04-16T00:58:02.349Z,76.51
2019-04-16T00:59:02.368Z,76.37
2019-04-16T01:00:02.337Z,76.42
2019-04-16T01:01:02.389Z,76.58
2019-04-16T01:02:02.496Z,76.71
2019-04-16T01:03:02.318Z,76.53
2019-04-16T01:04:03.064Z,76.48
2019-04-16T01:05:02.358Z,76.80
2019-04-16T01:06:07.034Z,76.54
2019-04-16T01:07:02.498Z,76.78
2019-04-16T01:08:02.321Z,76.51
2019-04-16T01:09:02.333Z,76.50
2019-04-16T01:10:02.343Z,76.51
2019-04-16T01:11:02.365Z,76.48
2019-04-16T01:12:02.337Z,76.68
2019-04-16T01:13:02.342Z,76.61
2019-04-16T01:14:02.351Z,76.51
2019-04-16T01:15:02.329Z,76.61
2019-04-16T01:16:03.746Z,76.64
2019-04-16T01:17:05.095Z,76.70
2019-04-16T01:18:04.618Z,76.59
2019-04-16T01:19:02.353Z,76.84
2019-04-16T01:20:02.349Z,76.62
2019-04-16T01:21:02.423Z,76.71
2019-04-16T01:22:02.372Z,76.60
2019-04-16T01:23:02.371Z,76.58
2019-04-16T01:24:02.351Z,76.83
2019-04-16T01:25:02.369Z,76.87
2019-04-16T01:26:02.362Z,76.76
2019-04-16T01:27:02.352Z,76.60
2019-04-16T01:28:02.355Z,76.77
2019-04-16T01:29:03.720Z,76.77
2019-04-16T01:30:04.888Z,76.41
2019-04-16T01:31:06.918Z,76.74
2019-04-16T01:32:02.432Z,76.55
2019-04-16T01:33:02.352Z,76.49
2019-04-16T01:34:02.372Z,76.55
2019-04-16T01:35:02.393Z,76.69
2019-04-16T01:36:02.367Z,76.67
2019-04-16T01:37:02.369Z,76.81
2019-04-16T01:38:02.369Z,76.51
2019-04-16T01:39:16.264Z,76.59
2019-04-16T01:40:02.361Z,76.50
2019-04-16T01:41:02.402Z,76.72
2019-04-16T01:42:02.366Z,76.50
2019-04-16T01:43:02.357Z,76.66
2019-04-16T01:44:02.405Z,76.70
2019-04-16T01:45:02.373Z,76.60
2019-04-16T01:46:02.811Z,76.59
2019-04-16T01:47:04.277Z,76.56
2019-04-16T01:48:06.679Z,76.52
2019-04-16T01:49:02.365Z,76.46
2019-04-16T01:50:02.413Z,76.59
2019-04-16T01:51:02.353Z,76.33
2019-04-16T01:52:02.377Z,76.26
2019-04-16T01:53:02.458Z,76.47
2019-04-16T01:54:02.596Z,76.49
2019-04-16T01:55:02.608Z,76.52
2019-04-16T01:56:02.601Z,76.41
2019-04-16T01:57:02.381Z,76.72
2019-04-16T01:58:03.641Z,76.52
2019-04-16T01:59:05.462Z,76.59
2019-04-16T02:00:06.747Z,76.87
2019-04-16T02:01:02.395Z,76.92
2019-04-16T02:02:02.379Z,76.83
2019-04-16T02:03:02.382Z,77.03
2019-04-16T02:04:02.389Z,76.75
2019-04-16T02:05:02.410Z,76.81
2019-04-16T02:06:02.398Z,76.97
2019-04-16T02:07:02.377Z,76.58
2019-04-16T02:08:02.393Z,76.62
2019-04-16T02:09:03.251Z,76.62
2019-04-16T02:10:06.448Z,76.59
2019-04-16T02:11:02.417Z,76.57
2019-04-16T02:12:02.380Z,76.74
2019-04-16T02:13:02.641Z,76.49
2019-04-16T02:14:02.622Z,76.60
2019-04-16T02:15:02.625Z,76.43
2019-04-16T02:16:02.404Z,76.36
2019-04-16T02:17:02.393Z,76.50
2019-04-16T02:18:02.404Z,76.47
2019-04-16T02:19:02.688Z,76.63
2019-04-16T02:20:06.202Z,76.63
2019-04-16T02:21:02.382Z,76.94
2019-04-16T02:22:02.386Z,76.59
2019-04-16T02:23:02.405Z,76.79
2019-04-16T02:24:02.399Z,76.70
2019-04-16T02:25:02.378Z,77.05
2019-04-16T02:26:02.439Z,76.97
2019-04-16T02:27:02.388Z,76.80
2019-04-16T02:28:02.410Z,76.79
2019-04-16T02:29:02.402Z,77.00
2019-04-16T02:30:04.653Z,76.79
2019-04-16T02:31:02.584Z,76.79
2019-04-16T02:32:02.403Z,76.89
2019-04-16T02:33:02.516Z,76.90
2019-04-16T02:34:02.630Z,76.80
2019-04-16T02:35:02.715Z,76.99
2019-04-16T02:36:02.659Z,76.99
2019-04-16T02:37:03.211Z,76.92
2019-04-16T02:38:02.708Z,76.94
2019-04-16T02:39:02.388Z,76.83
2019-04-16T02:40:02.542Z,77.02
2019-04-16T02:41:02.427Z,76.85
2019-04-16T02:42:02.779Z,76.54
2019-04-16T02:43:06.503Z,76.75
2019-04-16T02:44:02.789Z,76.87
2019-04-16T02:45:02.413Z,76.92
2019-04-16T02:46:02.413Z,76.95
2019-04-16T02:47:06.196Z,76.82
2019-04-16T02:48:02.422Z,76.80
2019-04-16T02:49:02.415Z,76.69
2019-04-16T02:50:02.429Z,76.62
2019-04-16T02:51:07.335Z,76.75
2019-04-16T02:52:02.425Z,76.71
2019-04-16T02:53:02.459Z,76.47
2019-04-16T02:54:02.438Z,76.47
2019-04-16T02:55:08.140Z,76.50
2019-04-16T02:56:02.448Z,76.38
2019-04-16T02:57:02.575Z,76.74
2019-04-16T02:58:02.557Z,76.52
2019-04-16T02:59:09.791Z,76.59
2019-04-16T03:00:02.431Z,76.52
2019-04-16T03:01:02.447Z,76.50
2019-04-16T03:02:02.459Z,76.74
2019-04-16T03:03:02.414Z,76.56
2019-04-16T03:04:02.417Z,76.72
2019-04-16T03:05:02.439Z,76.66
2019-04-16T03:06:02.427Z,76.71
2019-04-16T03:07:03.334Z,76.82
2019-04-16T03:08:04.608Z,76.92
2019-04-16T03:09:02.417Z,76.91
2019-04-16T03:10:02.821Z,76.89
2019-04-16T03:11:02.448Z,76.54
2019-04-16T03:12:02.442Z,76.64
2019-04-16T03:13:02.417Z,76.60
2019-04-16T03:14:02.422Z,76.55
2019-04-16T03:15:02.820Z,76.68
2019-04-16T03:16:05.689Z,76.70
2019-04-16T03:17:02.436Z,76.50
2019-04-16T03:18:02.566Z,76.70
2019-04-16T03:19:02.453Z,76.28
2019-04-16T03:20:02.423Z,76.46
2019-04-16T03:21:02.497Z,76.19
2019-04-16T03:22:03.303Z,76.09
2019-04-16T03:23:05.645Z,76.23
2019-04-16T03:24:02.708Z,76.31
2019-04-16T03:25:02.585Z,76.06
2019-04-16T03:26:02.703Z,76.11
2019-04-16T03:27:04.602Z,76.26
2019-04-16T03:28:02.625Z,76.44
2019-04-16T03:29:02.435Z,76.31
2019-04-16T03:30:03.459Z,76.15
2019-04-16T03:31:07.480Z,76.23
2019-04-16T03:32:02.424Z,76.43
2019-04-16T03:33:10.282Z,76.31
2019-04-16T03:34:02.487Z,76.43
2019-04-16T03:35:02.448Z,76.27
2019-04-16T03:36:02.477Z,76.33
2019-04-16T03:37:03.037Z,76.15
2019-04-16T03:38:05.067Z,75.83
2019-04-16T03:39:02.439Z,75.91
2019-04-16T03:40:15.108Z,76.20
2019-04-16T03:41:02.472Z,75.97
2019-04-16T03:42:02.459Z,76.07
2019-04-16T03:43:04.138Z,75.92
2019-04-16T03:44:04.212Z,76.28
2019-04-16T03:45:02.457Z,76.21
2019-04-16T03:46:02.430Z,76.14
2019-04-16T03:47:02.477Z,75.95
2019-04-16T03:48:02.448Z,75.85
2019-04-16T03:49:02.443Z,76.31
2019-04-16T03:50:02.458Z,76.21
2019-04-16T03:51:03.509Z,76.35
2019-04-16T03:52:04.823Z,76.20
2019-04-16T03:53:02.511Z,76.40
2019-04-16T03:54:04.900Z,76.41
2019-04-16T03:55:02.430Z,76.12
2019-04-16T03:56:02.470Z,76.45
2019-04-16T03:57:02.867Z,76.24
2019-04-16T03:58:05.178Z,76.56
2019-04-16T03:59:02.445Z,76.68
2019-04-16T04:00:02.691Z,76.49
2019-04-16T04:01:02.462Z,76.67
2019-04-16T04:02:02.447Z,76.76
2019-04-16T04:03:02.445Z,76.68
2019-04-16T04:04:02.463Z,76.79
2019-04-16T04:05:06.389Z,77.07
2019-04-16T04:06:03.508Z,77.05
2019-04-16T04:07:02.450Z,77.14
2019-04-16T04:08:02.459Z,77.09
2019-04-16T04:09:02.456Z,77.06
2019-04-16T04:10:02.469Z,77.05
2019-04-16T04:11:02.464Z,76.84
2019-04-16T04:12:02.460Z,77.19
2019-04-16T04:13:04.883Z,77.31
2019-04-16T04:14:02.488Z,77.26
2019-04-16T04:15:02.449Z,77.17
2019-04-16T04:16:02.465Z,77.64
2019-04-16T04:17:05.459Z,77.23
2019-04-16T04:18:02.506Z,77.36
2019-04-16T04:19:02.464Z,77.82
2019-04-16T04:20:02.496Z,77.49
2019-04-16T04:21:02.474Z,77.76
2019-04-16T04:22:02.472Z,77.78
2019-04-16T04:23:02.518Z,77.64
2019-04-16T04:24:02.773Z,77.74
2019-04-16T04:25:04.269Z,77.68
2019-04-16T04:26:02.463Z,77.77
2019-04-16T04:27:02.462Z,77.96
2019-04-16T04:28:02.468Z,77.58
2019-04-16T04:29:05.949Z,77.97
2019-04-16T04:30:02.472Z,77.74
2019-04-16T04:31:02.485Z,77.70
2019-04-16T04:32:03.387Z,77.59
2019-04-16T04:33:07.449Z,77.70
2019-04-16T04:34:02.487Z,77.78
2019-04-16T04:35:02.470Z,77.67
2019-04-16T04:36:02.470Z,77.47
2019-04-16T04:37:02.486Z,77.79
2019-04-16T04:38:04.083Z,77.46
2019-04-16T04:39:02.466Z,77.55
2019-04-16T04:40:02.459Z,77.58
2019-04-16T04:41:02.506Z,77.35
2019-04-16T04:42:02.478Z,77.33
2019-04-16T04:43:02.450Z,77.51
2019-04-16T04:44:04.355Z,77.11
2019-04-16T04:45:02.461Z,77.45
2019-04-16T04:46:02.486Z,77.06
2019-04-16T04:47:02.517Z,77.41
2019-04-16T04:48:02.495Z,77.35
2019-04-16T04:49:02.502Z,77.11
2019-04-16T04:50:03.442Z,77.03
2019-04-16T04:51:06.892Z,77.24
2019-04-16T04:52:02.469Z,77.18
2019-04-16T04:53:02.519Z,77.06
2019-04-16T04:54:02.497Z,76.75
2019-04-16T04:55:02.486Z,76.80
2019-04-16T04:56:02.466Z,76.84
2019-04-16T04:57:02.479Z,76.58
2019-04-16T04:58:03.332Z,76.49
2019-04-16T04:59:05.137Z,76.45
2019-04-16T05:00:02.481Z,76.35
2019-04-16T05:01:02.478Z,76.42
2019-04-16T05:02:02.483Z,76.07
2019-04-16T05:03:02.467Z,76.26
2019-04-16T05:04:02.488Z,76.31
2019-04-16T05:05:02.502Z,76.15
2019-04-16T05:06:02.465Z,76.11
2019-04-16T05:07:04.695Z,75.82
2019-04-16T05:08:02.487Z,75.90
2019-04-16T05:09:02.487Z,76.26
2019-04-16T05:10:04.618Z,76.13
2019-04-16T05:11:02.979Z,76.17
2019-04-16T05:12:02.478Z,76.21
2019-04-16T05:13:02.503Z,76.13
2019-04-16T05:14:02.503Z,75.89
2019-04-16T05:15:04.011Z,75.89
2019-04-16T05:16:02.801Z,76.03
2019-04-16T05:17:03.633Z,75.82
2019-04-16T05:18:05.564Z,75.61
2019-04-16T05:19:02.517Z,75.61
2019-04-16T05:20:02.492Z,75.44
2019-04-16T05:21:02.491Z,75.55
2019-04-16T05:22:02.501Z,75.17
2019-04-16T05:23:02.513Z,75.33
2019-04-16T05:24:02.506Z,75.38
2019-04-16T05:25:02.769Z,75.03
2019-04-16T05:26:04.698Z,74.87
2019-04-16T05:27:02.503Z,74.91
2019-04-16T05:28:02.512Z,74.72
2019-04-16T05:29:02.507Z,74.53
2019-04-16T05:30:02.505Z,74.39
2019-04-16T05:31:02.515Z,74.30
2019-04-16T05:32:02.532Z,73.79
2019-04-16T05:33:05.430Z,73.60
2019-04-16T05:34:02.575Z,73.36
2019-04-16T05:35:02.533Z,73.21
2019-04-16T05:36:02.526Z,72.80
2019-04-16T05:37:02.498Z,72.32
2019-04-16T05:38:02.532Z,72.18
2019-04-16T05:39:03.767Z,72.12
2019-04-16T05:40:02.518Z,71.92
2019-04-16T05:41:13.150Z,71.80
2019-04-16T05:42:02.526Z,71.44
2019-04-16T05:43:02.513Z,71.38
2019-04-16T05:44:02.503Z,71.07
2019-04-16T05:45:05.313Z,71.19
2019-04-16T05:46:02.524Z,70.92
2019-04-16T05:47:02.539Z,70.75
2019-04-16T05:48:02.524Z,70.73
2019-04-16T05:49:02.522Z,70.79
2019-04-16T05:50:02.498Z,70.60
2019-04-16T05:51:02.511Z,70.67
2019-04-16T05:52:03.826Z,70.72
2019-04-16T05:53:02.513Z,70.65
2019-04-16T05:54:02.522Z,70.54
2019-04-16T05:55:02.527Z,70.26
2019-04-16T05:56:02.541Z,69.98
2019-04-16T05:57:02.501Z,69.76
2019-04-16T05:58:02.519Z,69.65
2019-04-16T05:59:03.256Z,69.60
2019-04-16T06:00:03.373Z,69.22
2019-04-16T06:01:02.564Z,69.18
2019-04-16T06:02:02.540Z,68.91
2019-04-16T06:03:02.525Z,68.67
2019-04-16T06:04:02.519Z,68.39
2019-04-16T06:05:02.530Z,68.04
2019-04-16T06:06:02.559Z,67.92
2019-04-16T06:07:03.697Z,68.01
2019-04-16T06:08:02.533Z,67.68
2019-04-16T06:09:02.510Z,67.50
2019-04-16T06:10:02.513Z,67.60
2019-04-16T06:11:02.546Z,67.45
2019-04-16T06:12:02.533Z,67.17
2019-04-16T06:13:02.528Z,67.41
2019-04-16T06:14:02.548Z,67.21
2019-04-16T06:15:02.515Z,67.37
2019-04-16T06:16:02.520Z,67.17
2019-04-16T06:17:02.535Z,67.25
2019-04-16T06:18:05.337Z,67.06
2019-04-16T06:19:02.520Z,67.16
2019-04-16T06:20:02.533Z,66.82
2019-04-16T06:21:02.539Z,66.76
2019-04-16T06:22:02.558Z,66.79
2019-04-16T06:23:02.594Z,66.62
2019-04-16T06:24:03.521Z,66.16
2019-04-16T06:25:08.436Z,65.64
2019-04-16T06:26:02.584Z,64.66
2019-04-16T06:27:02.510Z,63.81
2019-04-16T06:28:02.546Z,63.13
2019-04-16T06:29:02.564Z,61.39
2019-04-16T06:30:02.540Z,60.12
2019-04-16T06:31:05.291Z,58.41
2019-04-16T06:32:02.559Z,57.66
2019-04-16T06:33:02.528Z,56.25
2019-04-16T06:34:02.537Z,55.34
2019-04-16T06:35:02.581Z,55.17
2019-04-16T06:36:02.567Z,54.82
2019-04-16T06:37:02.531Z,54.15
2019-04-16T06:38:02.538Z,54.63
2019-04-16T06:39:02.522Z,54.59
2019-04-16T06:40:02.549Z,54.17
2019-04-16T06:41:03.329Z,53.28
2019-04-16T06:42:02.547Z,53.24
2019-04-16T06:43:02.860Z,52.95
2019-04-16T06:44:04.206Z,52.62
2019-04-16T06:45:04.952Z,54.87
2019-04-16T06:46:02.555Z,55.90
2019-04-16T06:47:02.574Z,55.19
2019-04-16T06:48:02.542Z,53.37
2019-04-16T06:49:02.537Z,52.09
2019-04-16T06:50:02.555Z,50.44
2019-04-16T06:51:02.551Z,48.61
2019-04-16T06:52:02.558Z,48.84
2019-04-16T06:53:02.596Z,47.53
2019-04-16T06:54:02.557Z,45.65
2019-04-16T06:55:03.575Z,44.98
2019-04-16T06:56:05.645Z,44.37
2019-04-16T06:57:02.541Z,45.12
2019-04-16T06:58:02.569Z,45.31
2019-04-16T06:59:02.587Z,42.65
2019-04-16T07:00:03.128Z,40.97
2019-04-16T07:01:05.888Z,43.25
2019-04-16T07:02:02.563Z,40.94
2019-04-16T07:03:03.029Z,38.75
2019-04-16T07:04:02.556Z,36.84
2019-04-16T07:05:02.575Z,39.10
2019-04-16T07:06:03.907Z,40.88
2019-04-16T07:07:07.842Z,39.73
2019-04-16T07:08:02.596Z,40.27
2019-04-16T07:09:02.540Z,41.29
2019-04-16T07:10:02.551Z,40.86
2019-04-16T07:11:02.576Z,37.78
2019-04-16T07:12:02.565Z,40.14
2019-04-16T07:13:02.548Z,38.00
2019-04-16T07:14:02.562Z,39.40
2019-04-16T07:15:02.546Z,36.77
2019-04-16T07:16:02.577Z,37.58
2019-04-16T07:17:02.605Z,37.78
2019-04-16T07:18:05.308Z,38.94
2019-04-16T07:19:02.566Z,37.84
2019-04-16T07:20:04.618Z,33.99
2019-04-16T07:21:02.555Z,31.94
2019-04-16T07:22:02.582Z,32.09
2019-04-16T07:23:02.569Z,32.09
2019-04-16T07:24:02.622Z,30.46
2019-04-16T07:25:04.490Z,30.81
2019-04-16T07:26:03.861Z,32.41
2019-04-16T07:27:02.564Z,31.80
2019-04-16T07:28:02.581Z,32.72
2019-04-16T07:29:02.609Z,33.58
2019-04-16T07:30:06.762Z,32.56
2019-04-16T07:31:02.859Z,33.13
2019-04-16T07:32:03.050Z,35.28
2019-04-16T07:33:02.587Z,36.25
2019-04-16T07:34:02.584Z,33.71
2019-04-16T07:35:02.587Z,31.54
2019-04-16T07:36:02.595Z,30.66
2019-04-16T07:37:02.591Z,31.05
2019-04-16T07:38:05.773Z,31.71
2019-04-16T07:39:05.363Z,32.00
2019-04-16T07:40:02.600Z,31.05
2019-04-16T07:41:02.620Z,32.05
2019-04-16T07:42:10.554Z,31.30
2019-04-16T07:43:02.580Z,33.04
2019-04-16T07:44:08.148Z,31.72
2019-04-16T07:45:02.589Z,32.36
2019-04-16T07:46:02.621Z,33.07
2019-04-16T07:47:02.593Z,32.69
2019-04-16T07:48:05.903Z,31.12
2019-04-16T07:49:02.589Z,31.28
2019-04-16T07:50:02.620Z,30.18
2019-04-16T07:51:04.850Z,31.55
2019-04-16T07:52:06.959Z,32.06
2019-04-16T07:53:02.639Z,31.35
2019-04-16T07:54:03.169Z,32.30
2019-04-16T07:55:02.614Z,30.05
2019-04-16T07:56:02.584Z,29.96
2019-04-16T07:57:02.594Z,29.44
2019-04-16T07:58:02.773Z,30.02
2019-04-16T07:59:02.695Z,30.06
2019-04-16T08:00:02.608Z,30.12
2019-04-16T08:01:02.603Z,29.48
2019-04-16T08:02:02.625Z,29.66
2019-04-16T08:03:02.699Z,29.59
2019-04-16T08:04:03.261Z,31.29
2019-04-16T08:05:07.754Z,30.40
2019-04-16T08:06:02.613Z,30.26
2019-04-16T08:07:02.598Z,28.03
2019-04-16T08:08:02.857Z,29.00
2019-04-16T08:09:02.587Z,28.97
2019-04-16T08:10:03.321Z,28.03
2019-04-16T08:11:02.644Z,30.49
2019-04-16T08:12:02.696Z,28.47
2019-04-16T08:13:02.612Z,28.87
2019-04-16T08:14:02.790Z,30.79
2019-04-16T08:15:13.371Z,30.84
2019-04-16T08:16:02.618Z,30.24
2019-04-16T08:17:02.641Z,30.19
2019-04-16T08:18:02.801Z,27.96
2019-04-16T08:19:02.620Z,29.15
2019-04-16T08:20:02.665Z,29.76
2019-04-16T08:21:10.120Z,29.66
2019-04-16T08:22:02.617Z,29.67
2019-04-16T08:23:02.638Z,28.31
2019-04-16T08:24:02.626Z,27.54
2019-04-16T08:25:03.917Z,27.10
2019-04-16T08:26:04.336Z,25.99
2019-04-16T08:27:02.611Z,28.40
2019-04-16T08:28:02.621Z,28.10
2019-04-16T08:29:02.646Z,27.40
2019-04-16T08:30:04.134Z,29.39
2019-04-16T08:31:02.617Z,29.70
2019-04-16T08:32:02.634Z,28.85
2019-04-16T08:33:02.628Z,27.22
2019-04-16T08:34:02.632Z,27.33
2019-04-16T08:35:02.678Z,28.06
2019-04-16T08:36:02.625Z,27.57
2019-04-16T08:37:02.633Z,29.51
2019-04-16T08:38:02.623Z,27.78
2019-04-16T08:39:05.911Z,25.39
2019-04-16T08:40:02.633Z,24.59
2019-04-16T08:41:02.916Z,26.24
2019-04-16T08:42:02.650Z,25.78
2019-04-16T08:43:02.667Z,27.33
2019-04-16T08:44:03.815Z,25.77
2019-04-16T08:45:07.604Z,25.93
2019-04-16T08:46:02.652Z,24.76
2019-04-16T08:47:03.036Z,25.70
2019-04-16T08:48:02.672Z,25.25
2019-04-16T08:49:02.645Z,27.05
2019-04-16T08:50:02.668Z,26.59
2019-04-16T08:51:04.747Z,24.71
2019-04-16T08:52:02.829Z,25.44
2019-04-16T08:53:02.699Z,24.74
2019-04-16T08:54:02.654Z,24.14
2019-04-16T08:55:02.658Z,24.93
2019-04-16T08:56:02.640Z,26.58
2019-04-16T08:57:02.763Z,24.70
2019-04-16T08:58:06.055Z,24.95
2019-04-16T08:59:02.701Z,24.79
2019-04-16T09:00:02.652Z,24.77
2019-04-16T09:01:02.743Z,26.49
2019-04-16T09:02:02.668Z,27.78
2019-04-16T09:03:02.642Z,27.92
2019-04-16T09:04:03.087Z,28.95
2019-04-16T09:05:05.979Z,26.32
2019-04-16T09:06:04.298Z,26.26
2019-04-16T09:07:11.123Z,27.07
2019-04-16T09:08:12.144Z,28.89
2019-04-16T09:09:12.720Z,27.49
2019-04-16T09:10:16.168Z,26.66
2019-04-16T09:11:03.346Z,28.02
2019-04-16T09:12:07.999Z,26.69
2019-04-16T09:13:04.609Z,26.23
2019-04-16T09:14:02.677Z,26.79
2019-04-16T09:15:02.667Z,27.05
2019-04-16T09:16:02.656Z,26.67
2019-04-16T09:17:02.680Z,25.79
2019-04-16T09:18:02.676Z,26.01
2019-04-16T09:19:02.684Z,26.07
2019-04-16T09:20:05.148Z,25.72
2019-04-16T09:21:02.662Z,25.85
2019-04-16T09:22:02.666Z,25.48
2019-04-16T09:23:02.692Z,27.05
2019-04-16T09:24:08.567Z,24.57
2019-04-16T09:25:02.682Z,25.72
2019-04-16T09:26:13.616Z,26.43
2019-04-16T09:27:02.658Z,25.68
2019-04-16T09:28:02.690Z,25.30
2019-04-16T09:29:08.515Z,25.04
2019-04-16T09:30:02.683Z,26.00
2019-04-16T09:31:02.719Z,25.90
2019-04-16T09:32:02.696Z,26.04
2019-04-16T09:33:02.673Z,24.57
2019-04-16T09:34:05.754Z,24.86
2019-04-16T09:35:10.084Z,25.47
2019-04-16T09:36:02.676Z,26.10
2019-04-16T09:37:02.701Z,25.47
2019-04-16T09:38:02.697Z,24.29
2019-04-16T09:39:02.663Z,23.03
2019-04-16T09:40:15.592Z,24.04
2019-04-16T09:41:02.746Z,24.18
2019-04-16T09:42:02.773Z,24.41
2019-04-16T09:43:15.803Z,23.68
2019-04-16T09:44:02.738Z,23.96
2019-04-16T09:45:05.060Z,23.53
2019-04-16T09:46:10.381Z,23.42
2019-04-16T09:47:05.210Z,22.54
2019-04-16T09:48:03.773Z,22.55
2019-04-16T09:49:04.733Z,22.27
2019-04-16T09:50:02.687Z,23.17
2019-04-16T09:51:02.687Z,23.55
2019-04-16T09:52:03.950Z,23.89
2019-04-16T09:53:03.090Z,23.07
2019-04-16T09:54:02.695Z,22.07
2019-04-16T09:55:02.711Z,23.18
2019-04-16T09:56:02.741Z,24.06
2019-04-16T09:57:02.721Z,23.19
2019-04-16T09:58:06.066Z,22.30
2019-04-16T09:59:02.772Z,21.30
2019-04-16T10:00:02.689Z,20.67
2019-04-16T10:01:02.692Z,19.76
2019-04-16T10:02:02.746Z,20.31
2019-04-16T10:03:02.695Z,21.65
2019-04-16T10:04:02.719Z,20.11
2019-04-16T10:05:02.716Z,20.92
2019-04-16T10:06:05.279Z,22.15
2019-04-16T10:07:02.737Z,23.48
2019-04-16T10:08:02.761Z,22.68
2019-04-16T10:09:02.702Z,22.52
2019-04-16T10:10:02.728Z,22.53
2019-04-16T10:11:05.770Z,22.22
2019-04-16T10:12:05.036Z,22.10
2019-04-16T10:13:02.737Z,20.21
2019-04-16T10:14:02.741Z,21.19
2019-04-16T10:15:02.756Z,22.25
2019-04-16T10:16:02.756Z,22.21
2019-04-16T10:17:02.775Z,21.45
2019-04-16T10:18:02.715Z,23.53
2019-04-16T10:19:07.897Z,21.86
2019-04-16T10:20:02.758Z,21.67
2019-04-16T10:21:02.732Z,22.65
2019-04-16T10:22:02.734Z,23.37
2019-04-16T10:23:02.781Z,23.11
2019-04-16T10:24:02.731Z,22.77
2019-04-16T10:25:02.749Z,21.97
2019-04-16T10:26:02.773Z,21.73
2019-04-16T10:27:04.361Z,23.27
2019-04-16T10:28:04.960Z,22.47
2019-04-16T10:29:05.817Z,22.34
2019-04-16T10:30:02.727Z,22.52
2019-04-16T10:31:02.739Z,22.96
2019-04-16T10:32:02.788Z,21.82
2019-04-16T10:33:02.718Z,21.89
2019-04-16T10:34:02.786Z,22.04
2019-04-16T10:35:02.755Z,23.49
2019-04-16T10:36:04.807Z,24.06
2019-04-16T10:37:02.750Z,21.93
2019-04-16T10:38:02.772Z,22.33
2019-04-16T10:39:02.766Z,22.67
2019-04-16T10:40:04.893Z,23.52
2019-04-16T10:41:02.804Z,21.52
2019-04-16T10:42:02.725Z,20.77
2019-04-16T10:43:02.769Z,21.34
2019-04-16T10:44:02.747Z,22.17
2019-04-16T10:45:02.770Z,21.66
2019-04-16T10:46:02.818Z,23.31
2019-04-16T10:47:02.770Z,25.04
2019-04-16T10:48:02.756Z,25.37
2019-04-16T10:49:02.715Z,24.65
2019-04-16T10:50:02.787Z,23.61
2019-04-16T10:51:02.732Z,23.55
2019-04-16T10:52:02.787Z,24.65
2019-04-16T10:53:02.813Z,23.98
2019-04-16T10:54:02.737Z,22.95
2019-04-16T10:55:02.795Z,22.33
2019-04-16T10:56:02.798Z,22.19
2019-04-16T10:57:02.783Z,23.58
2019-04-16T10:58:02.775Z,23.25
2019-04-16T10:59:02.820Z,22.51
2019-04-16T11:00:02.749Z,21.71
2019-04-16T11:01:02.775Z,22.74
2019-04-16T11:02:02.869Z,22.97
2019-04-16T11:03:02.760Z,24.65
2019-04-16T11:04:04.833Z,24.99
2019-04-16T11:05:03.236Z,24.70
2019-04-16T11:06:02.767Z,25.40
2019-04-16T11:07:02.798Z,25.74
2019-04-16T11:08:04.345Z,24.29
2019-04-16T11:09:02.770Z,23.78
2019-04-16T11:10:02.803Z,23.17
2019-04-16T11:11:02.876Z,24.17
2019-04-16T11:12:05.405Z,24.21
2019-04-16T11:13:02.785Z,23.68
2019-04-16T11:14:02.811Z,23.03
2019-04-16T11:15:02.780Z,23.17
2019-04-16T11:16:02.791Z,22.57
2019-04-16T11:17:02.827Z,22.89
2019-04-16T11:18:02.788Z,22.47
2019-04-16T11:19:02.963Z,22.73
2019-04-16T11:20:03.179Z,21.72
2019-04-16T11:21:02.960Z,21.48
2019-04-16T11:22:03.914Z,21.75
2019-04-16T11:23:03.289Z,23.62
2019-04-16T11:24:03.087Z,23.62
2019-04-16T11:25:03.087Z,24.79
2019-04-16T11:26:02.775Z,23.01
2019-04-16T11:27:02.782Z,23.24
2019-04-16T11:28:02.814Z,23.53
2019-04-16T11:29:02.880Z,23.58
2019-04-16T11:30:02.899Z,24.07
2019-04-16T11:31:03.062Z,22.19
2019-04-16T11:32:03.031Z,22.03
2019-04-16T11:33:03.116Z,22.76
2019-04-16T11:34:03.001Z,22.72
2019-04-16T11:35:03.040Z,23.42
2019-04-16T11:36:17.415Z,24.06
2019-04-16T11:37:07.412Z,23.09
2019-04-16T11:38:03.010Z,24.00
2019-04-16T11:39:02.835Z,24.60
2019-04-16T11:40:03.188Z,22.44
2019-04-16T11:41:02.810Z,21.53
2019-04-16T11:42:02.793Z,21.99
2019-04-16T11:43:03.154Z,21.33
2019-04-16T11:44:14.264Z,22.18
2019-04-16T11:45:02.810Z,21.96
2019-04-16T11:46:03.055Z,21.39
2019-04-16T11:47:02.872Z,21.30
2019-04-16T11:48:03.013Z,20.06
2019-04-16T11:49:03.278Z,19.65
2019-04-16T11:50:02.838Z,21.10
2019-04-16T11:51:02.815Z,21.06
2019-04-16T11:52:02.927Z,22.43
2019-04-16T11:53:03.102Z,22.52
2019-04-16T11:54:03.091Z,23.35
2019-04-16T11:55:02.895Z,22.95
2019-04-16T11:56:02.902Z,23.57
2019-04-16T11:57:03.000Z,22.08
2019-04-16T11:58:02.837Z,24.09
2019-04-16T11:59:02.857Z,23.42
2019-04-16T12:00:07.714Z,22.93
2019-04-16T12:01:02.848Z,19.97
2019-04-16T12:02:02.927Z,19.36
2019-04-16T12:03:02.843Z,22.23
2019-04-16T12:04:02.872Z,21.10
2019-04-16T12:05:02.851Z,21.83
2019-04-16T12:06:02.830Z,22.94
2019-04-16T12:07:05.624Z,22.53
2019-04-16T12:08:02.871Z,22.01
2019-04-16T12:09:02.874Z,22.23
2019-04-16T12:10:02.857Z,21.05
2019-04-16T12:11:02.870Z,22.75
2019-04-16T12:12:02.845Z,21.69
2019-04-16T12:13:03.965Z,21.75
2019-04-16T12:14:04.224Z,21.55
2019-04-16T12:15:02.831Z,23.48
2019-04-16T12:16:02.868Z,23.31
2019-04-16T12:17:02.855Z,23.57
2019-04-16T12:18:02.833Z,22.62
2019-04-16T12:19:02.878Z,22.52
2019-04-16T12:20:02.946Z,21.28
2019-04-16T12:21:02.879Z,23.73
2019-04-16T12:22:02.885Z,24.35
2019-04-16T12:23:02.890Z,22.92
2019-04-16T12:24:02.890Z,23.59
2019-04-16T12:25:02.839Z,22.14
2019-04-16T12:26:02.853Z,20.87
2019-04-16T12:27:03.102Z,21.42
2019-04-16T12:28:06.525Z,20.90
2019-04-16T12:29:02.895Z,22.02
2019-04-16T12:30:02.881Z,21.07
2019-04-16T12:31:02.844Z,21.49
2019-04-16T12:32:04.338Z,21.48
2019-04-16T12:33:07.721Z,22.34
2019-04-16T12:34:02.896Z,21.85
2019-04-16T12:35:02.881Z,21.58
2019-04-16T12:36:02.928Z,22.18
2019-04-16T12:37:02.891Z,21.84
2019-04-16T12:38:02.872Z,21.97
2019-04-16T12:39:03.014Z,22.26
2019-04-16T12:40:02.932Z,22.71
2019-04-16T12:41:02.873Z,22.87
2019-04-16T12:42:02.879Z,21.65
2019-04-16T12:43:02.873Z,22.91
2019-04-16T12:44:02.924Z,24.15
2019-04-16T12:45:02.855Z,22.69
2019-04-16T12:46:02.885Z,22.52
2019-04-16T12:47:02.920Z,23.12
2019-04-16T12:48:02.903Z,22.82
2019-04-16T12:49:02.880Z,21.96
2019-04-16T12:50:02.926Z,20.29
2019-04-16T12:51:02.858Z,20.84
2019-04-16T12:52:03.152Z,19.25